sensor_id;sensor_type;location;lat;lon;timestamp;pressure;altitude;pressure_sealevel;temperature;humidity
48390;BME280;34643;47.964;7.982;2024-01-07T00:00:46;96022.38;;;16.84;61.41
48390;BME280;34643;47.964;7.982;2024-01-07T00:03:11;96023.22;;;16.84;61.29
48390;BME280;34643;47.964;7.982;2024-01-07T00:05:37;96023.22;;;16.84;61.21
48390;BME280;34643;47.964;7.982;2024-01-07T00:08:02;96029.38;;;16.83;61.32
48390;BME280;34643;47.964;7.982;2024-01-07T00:10:28;96025.81;;;16.84;61.44
48390;BME280;34643;47.964;7.982;2024-01-07T00:12:53;96030.75;;;16.87;61.09
48390;BME280;34643;47.964;7.982;2024-01-07T00:15:18;96035.16;;;16.87;61.21
48390;BME280;34643;47.964;7.982;2024-01-07T00:17:43;96037.63;;;16.88;61.17
48390;BME280;34643;47.964;7.982;2024-01-07T00:20:09;96028.16;;;16.87;61.11
48390;BME280;34643;47.964;7.982;2024-01-07T00:22:35;96033.38;;;16.87;61.02
48390;BME280;34643;47.964;7.982;2024-01-07T00:25:00;96032.75;;;16.95;61.19
48390;BME280;34643;47.964;7.982;2024-01-07T00:27:26;96032.03;;;16.93;60.94
48390;BME280;34643;47.964;7.982;2024-01-07T00:29:51;96027.91;;;16.90;60.85
48390;BME280;34643;47.964;7.982;2024-01-07T00:32:16;96030.63;;;16.89;60.94
48390;BME280;34643;47.964;7.982;2024-01-07T00:34:41;96032.41;;;16.88;60.98
48390;BME280;34643;47.964;7.982;2024-01-07T00:37:07;96025.53;;;16.87;60.99
48390;BME280;34643;47.964;7.982;2024-01-07T00:39:32;96029.94;;;16.87;60.84
48390;BME280;34643;47.964;7.982;2024-01-07T00:41:57;96034.22;;;16.88;60.86
48390;BME280;34643;47.964;7.982;2024-01-07T00:44:23;96033.25;;;16.89;60.57
48390;BME280;34643;47.964;7.982;2024-01-07T00:46:48;96031.72;;;16.86;60.65
48390;BME280;34643;47.964;7.982;2024-01-07T00:49:13;96030.75;;;16.87;60.57
48390;BME280;34643;47.964;7.982;2024-01-07T00:51:38;96025.53;;;16.87;60.63
48390;BME280;34643;47.964;7.982;2024-01-07T00:54:04;96029.13;;;16.86;60.57
48390;BME280;34643;47.964;7.982;2024-01-07T00:56:29;96035.28;;;16.85;60.65
48390;BME280;34643;47.964;7.982;2024-01-07T00:58:55;96035.28;;;16.85;60.59
48390;BME280;34643;47.964;7.982;2024-01-07T01:01:20;96036.94;;;16.86;60.54
48390;BME280;34643;47.964;7.982;2024-01-07T01:03:45;96033.75;;;16.83;60.70
48390;BME280;34643;47.964;7.982;2024-01-07T01:06:11;96035.41;;;16.84;60.47
48390;BME280;34643;47.964;7.982;2024-01-07T01:08:36;96041.31;;;16.86;60.53
48390;BME280;34643;47.964;7.982;2024-01-07T01:11:02;96038.84;;;16.84;60.51
48390;BME280;34643;47.964;7.982;2024-01-07T01:13:27;96042.28;;;16.85;60.44
48390;BME280;34643;47.964;7.982;2024-01-07T01:15:52;96041.47;;;16.84;60.56
48390;BME280;34643;47.964;7.982;2024-01-07T01:18:17;96042.28;;;16.85;60.45
48390;BME280;34643;47.964;7.982;2024-01-07T01:20:43;96042.41;;;16.83;60.39
48390;BME280;34643;47.964;7.982;2024-01-07T01:23:08;96046.91;;;16.81;60.46
48390;BME280;34643;47.964;7.982;2024-01-07T01:25:33;96043.31;;;16.82;60.34
48390;BME280;34643;47.964;7.982;2024-01-07T01:28:01;96046.78;;;16.83;60.42
48390;BME280;34643;47.964;7.982;2024-01-07T01:30:26;96048.53;;;16.82;60.56
48390;BME280;34643;47.964;7.982;2024-01-07T01:32:52;96052.81;;;16.83;60.49
48390;BME280;34643;47.964;7.982;2024-01-07T01:35:17;96052.91;;;16.82;60.44
48390;BME280;34643;47.964;7.982;2024-01-07T01:37:43;96048.53;;;16.82;60.45
48390;BME280;34643;47.964;7.982;2024-01-07T01:40:08;96055.53;;;16.82;60.23
48390;BME280;34643;47.964;7.982;2024-01-07T01:42:34;96053.75;;;16.82;60.25
48390;BME280;34643;47.964;7.982;2024-01-07T01:44:59;96047.72;;;16.82;60.26
48390;BME280;34643;47.964;7.982;2024-01-07T01:47:27;96044.41;;;16.80;60.45
48390;BME280;34643;47.964;7.982;2024-01-07T01:49:52;96046.91;;;16.81;60.21
48390;BME280;34643;47.964;7.982;2024-01-07T01:52:17;96046.91;;;16.81;60.33
48390;BME280;34643;47.964;7.982;2024-01-07T01:54:43;96047.72;;;16.82;60.32
48390;BME280;34643;47.964;7.982;2024-01-07T01:57:09;96049.50;;;16.81;60.33
48390;BME280;34643;47.964;7.982;2024-01-07T01:59:38;96051.41;;;16.79;60.14
48390;BME280;34643;47.964;7.982;2024-01-07T02:02:04;96041.00;;;16.79;60.26
48390;BME280;34643;47.964;7.982;2024-01-07T02:04:29;96049.75;;;16.78;60.34
48390;BME280;34643;47.964;7.982;2024-01-07T02:06:55;96057.44;;;16.80;60.24
48390;BME280;34643;47.964;7.982;2024-01-07T02:09:20;96064.44;;;16.79;60.18
48390;BME280;34643;47.964;7.982;2024-01-07T02:12:06;96060.16;;;16.78;60.13
48390;BME280;34643;47.964;7.982;2024-01-07T02:14:31;96060.06;;;16.80;60.42
48390;BME280;34643;47.964;7.982;2024-01-07T02:16:56;96060.06;;;16.80;60.34
48390;BME280;34643;47.964;7.982;2024-01-07T02:19:22;96062.66;;;16.80;60.09
48390;BME280;34643;47.964;7.982;2024-01-07T02:21:49;96061.16;;;16.77;60.27
48390;BME280;34643;47.964;7.982;2024-01-07T02:24:15;96062.66;;;16.80;60.05
48390;BME280;34643;47.964;7.982;2024-01-07T02:26:40;96064.44;;;16.79;60.21
48390;BME280;34643;47.964;7.982;2024-01-07T02:29:06;96065.50;;;16.77;60.18
48390;BME280;34643;47.964;7.982;2024-01-07T02:31:31;96059.22;;;16.79;60.20
48390;BME280;34643;47.964;7.982;2024-01-07T02:33:56;96065.38;;;16.78;60.16
48390;BME280;34643;47.964;7.982;2024-01-07T02:36:22;96061.84;;;16.79;60.10
48390;BME280;34643;47.964;7.982;2024-01-07T02:38:47;96063.75;;;16.77;60.16
48390;BME280;34643;47.964;7.982;2024-01-07T02:41:12;96060.88;;;16.80;60.10
48390;BME280;34643;47.964;7.982;2024-01-07T02:43:37;96064.44;;;16.79;60.25
48390;BME280;34643;47.964;7.982;2024-01-07T02:46:03;96062.53;;;16.81;60.25
48390;BME280;34643;47.964;7.982;2024-01-07T02:48:28;96060.06;;;16.80;60.28
48390;BME280;34643;47.964;7.982;2024-01-07T02:50:54;96065.25;;;16.80;60.30
48390;BME280;34643;47.964;7.982;2024-01-07T02:53:19;96060.88;;;16.80;60.17
48390;BME280;34643;47.964;7.982;2024-01-07T02:55:44;96058.38;;;16.79;60.24
48390;BME280;34643;47.964;7.982;2024-01-07T02:58:09;96063.59;;;16.79;60.33
48390;BME280;34643;47.964;7.982;2024-01-07T03:00:35;96060.28;;;16.77;60.17
48390;BME280;34643;47.964;7.982;2024-01-07T03:03:00;96064.44;;;16.79;60.30
48390;BME280;34643;47.964;7.982;2024-01-07T03:05:25;96061.16;;;16.77;60.23
48390;BME280;34643;47.964;7.982;2024-01-07T03:07:50;96066.34;;;16.77;60.16
48390;BME280;34643;47.964;7.982;2024-01-07T03:10:16;96057.56;;;16.78;60.19
48390;BME280;34643;47.964;7.982;2024-01-07T03:12:41;96061.97;;;16.78;60.20
48390;BME280;34643;47.964;7.982;2024-01-07T03:15:06;96058.25;;;16.80;60.24
48390;BME280;34643;47.964;7.982;2024-01-07T03:17:33;96054.25;;;16.76;60.23
48390;BME280;34643;47.964;7.982;2024-01-07T03:19:59;96048.94;;;16.78;60.14
48390;BME280;34643;47.964;7.982;2024-01-07T03:22:24;96061.97;;;16.78;60.42
48390;BME280;34643;47.964;7.982;2024-01-07T03:24:49;96063.59;;;16.79;60.36
48390;BME280;34643;47.964;7.982;2024-01-07T03:27:14;96068.00;;;16.78;60.28
48390;BME280;34643;47.964;7.982;2024-01-07T03:29:40;96069.66;;;16.79;60.17
48390;BME280;34643;47.964;7.982;2024-01-07T03:32:05;96074.88;;;16.79;60.40
48390;BME280;34643;47.964;7.982;2024-01-07T03:34:30;96066.06;;;16.80;60.12
48390;BME280;34643;47.964;7.982;2024-01-07T03:36:56;96065.38;;;16.78;60.39
48390;BME280;34643;47.964;7.982;2024-01-07T03:39:22;96071.56;;;16.77;60.43
48390;BME280;34643;47.964;7.982;2024-01-07T03:41:47;96065.38;;;16.78;60.14
48390;BME280;34643;47.964;7.982;2024-01-07T03:44:13;96072.25;;;16.79;60.21
48390;BME280;34643;47.964;7.982;2024-01-07T03:46:38;96073.19;;;16.78;60.16
48390;BME280;34643;47.964;7.982;2024-01-07T03:49:03;96079.22;;;16.79;60.35
48390;BME280;34643;47.964;7.982;2024-01-07T03:51:29;96081.72;;;16.80;60.18
48390;BME280;34643;47.964;7.982;2024-01-07T03:53:54;96076.38;;;16.82;60.21
48390;BME280;34643;47.964;7.982;2024-01-07T03:56:19;96080.78;;;16.81;60.35
48390;BME280;34643;47.964;7.982;2024-01-07T03:58:44;96077.19;;;16.82;60.11
48390;BME280;34643;47.964;7.982;2024-01-07T04:01:09;96073.91;;;16.80;60.40
48390;BME280;34643;47.964;7.982;2024-01-07T04:03:35;96072.97;;;16.81;60.27
48390;BME280;34643;47.964;7.982;2024-01-07T04:06:00;96071.28;;;16.80;60.40
48390;BME280;34643;47.964;7.982;2024-01-07T04:08:26;96077.34;;;16.81;60.48
48390;BME280;34643;47.964;7.982;2024-01-07T04:10:51;96075.44;;;16.83;60.23
48390;BME280;34643;47.964;7.982;2024-01-07T04:13:16;96074.75;;;16.81;60.46
48390;BME280;34643;47.964;7.982;2024-01-07T04:15:41;96077.34;;;16.81;60.29
48390;BME280;34643;47.964;7.982;2024-01-07T04:18:07;96084.19;;;16.82;60.27
48390;BME280;34643;47.964;7.982;2024-01-07T04:20:32;96080.19;;;16.78;60.59
48390;BME280;34643;47.964;7.982;2024-01-07T04:22:57;96080.91;;;16.80;60.35
48390;BME280;34643;47.964;7.982;2024-01-07T04:25:23;96083.38;;;16.81;60.46
48390;BME280;34643;47.964;7.982;2024-01-07T04:27:48;96086.09;;;16.80;60.37
48390;BME280;34643;47.964;7.982;2024-01-07T04:30:14;96079.09;;;16.80;60.58
48390;BME280;34643;47.964;7.982;2024-01-07T04:32:39;96087.78;;;16.81;60.51
48390;BME280;34643;47.964;7.982;2024-01-07T04:35:04;96083.63;;;16.78;60.47
48390;BME280;34643;47.964;7.982;2024-01-07T04:37:31;96086.94;;;16.80;60.49
48390;BME280;34643;47.964;7.982;2024-01-07T04:39:56;96084.31;;;16.80;60.43
48390;BME280;34643;47.964;7.982;2024-01-07T04:42:21;96087.06;;;16.79;60.38
48390;BME280;34643;47.964;7.982;2024-01-07T04:44:47;96092.13;;;16.80;60.33
48390;BME280;34643;47.964;7.982;2024-01-07T04:47:27;96084.44;;;16.79;60.29
48390;BME280;34643;47.964;7.982;2024-01-07T04:49:53;96087.91;;;16.79;60.42
48390;BME280;34643;47.964;7.982;2024-01-07T04:52:19;96087.91;;;16.79;60.22
48390;BME280;34643;47.964;7.982;2024-01-07T04:54:44;96091.44;;;16.78;60.57
48390;BME280;34643;47.964;7.982;2024-01-07T04:57:09;96093.00;;;16.81;60.16
48390;BME280;34643;47.964;7.982;2024-01-07T04:59:34;96096.53;;;16.80;60.19
48390;BME280;34643;47.964;7.982;2024-01-07T05:02:00;96103.41;;;16.81;60.38
48390;BME280;34643;47.964;7.982;2024-01-07T05:04:25;96100.66;;;16.82;60.47
48390;BME280;34643;47.964;7.982;2024-01-07T05:06:50;96097.34;;;16.80;60.49
48390;BME280;34643;47.964;7.982;2024-01-07T05:09:15;96098.19;;;16.81;60.54
48390;BME280;34643;47.964;7.982;2024-01-07T05:11:40;96099.03;;;16.81;60.31
48390;BME280;34643;47.964;7.982;2024-01-07T05:14:06;96099.03;;;16.81;60.43
48390;BME280;34643;47.964;7.982;2024-01-07T05:16:31;96110.38;;;16.80;60.34
48390;BME280;34643;47.964;7.982;2024-01-07T05:18:56;96107.78;;;16.80;60.49
48390;BME280;34643;47.964;7.982;2024-01-07T05:21:22;96105.88;;;16.82;60.41
48390;BME280;34643;47.964;7.982;2024-01-07T05:23:47;96111.34;;;16.79;60.48
48390;BME280;34643;47.964;7.982;2024-01-07T05:26:12;96113.00;;;16.80;60.42
48390;BME280;34643;47.964;7.982;2024-01-07T05:28:37;96112.16;;;16.80;60.28
48390;BME280;34643;47.964;7.982;2024-01-07T05:31:03;96102.84;;;16.77;60.37
48390;BME280;34643;47.964;7.982;2024-01-07T05:33:28;96119.88;;;16.81;60.38
48390;BME280;34643;47.964;7.982;2024-01-07T05:35:53;96118.09;;;16.82;60.38
48390;BME280;34643;47.964;7.982;2024-01-07T05:38:19;96121.50;;;16.82;60.27
48390;BME280;34643;47.964;7.982;2024-01-07T05:40:44;96120.00;;;16.80;60.21
48390;BME280;34643;47.964;7.982;2024-01-07T05:43:09;96126.88;;;16.81;60.18
48390;BME280;34643;47.964;7.982;2024-01-07T05:45:35;96122.59;;;16.80;60.37
48390;BME280;34643;47.964;7.982;2024-01-07T05:48:00;96122.59;;;16.80;60.25
48390;BME280;34643;47.964;7.982;2024-01-07T05:50:25;96123.53;;;16.79;60.19
48390;BME280;34643;47.964;7.982;2024-01-07T05:52:50;96129.72;;;16.78;60.20
48390;BME280;34643;47.964;7.982;2024-01-07T05:55:15;96130.53;;;16.78;60.42
48390;BME280;34643;47.964;7.982;2024-01-07T05:57:42;96134.13;;;16.77;60.28
48390;BME280;34643;47.964;7.982;2024-01-07T06:00:08;96137.53;;;16.78;60.25
48390;BME280;34643;47.964;7.982;2024-01-07T06:02:38;96135.75;;;16.78;60.38
48390;BME280;34643;47.964;7.982;2024-01-07T06:05:03;96130.41;;;16.80;60.28
48390;BME280;34643;47.964;7.982;2024-01-07T06:07:28;96132.31;;;16.78;60.43
48390;BME280;34643;47.964;7.982;2024-01-07T06:09:54;96131.63;;;16.76;60.34
48390;BME280;34643;47.964;7.982;2024-01-07T06:12:20;96134.13;;;16.77;60.46
48390;BME280;34643;47.964;7.982;2024-01-07T06:14:45;96133.97;;;16.79;60.13
48390;BME280;34643;47.964;7.982;2024-01-07T06:17:10;96136.72;;;16.77;60.24
48390;BME280;34643;47.964;7.982;2024-01-07T06:19:36;96147.84;;;16.79;60.30
48390;BME280;34643;47.964;7.982;2024-01-07T06:22:01;96148.66;;;16.80;60.30
48390;BME280;34643;47.964;7.982;2024-01-07T06:24:26;96148.66;;;16.80;60.33
48390;BME280;34643;47.964;7.982;2024-01-07T06:26:51;96157.19;;;16.82;60.48
48390;BME280;34643;47.964;7.982;2024-01-07T06:29:16;96154.69;;;16.80;60.44
48390;BME280;34643;47.964;7.982;2024-01-07T06:31:42;96151.16;;;16.81;60.48
48390;BME280;34643;47.964;7.982;2024-01-07T06:34:08;96149.25;;;16.83;60.32
48390;BME280;34643;47.964;7.982;2024-01-07T06:36:33;96153.75;;;16.81;60.44
48390;BME280;34643;47.964;7.982;2024-01-07T06:38:58;96157.19;;;16.82;60.43
48390;BME280;34643;47.964;7.982;2024-01-07T06:41:24;96149.25;;;16.83;60.50
48390;BME280;34643;47.964;7.982;2024-01-07T06:43:49;96164.91;;;16.83;60.46
48390;BME280;34643;47.964;7.982;2024-01-07T06:46:15;96164.06;;;16.83;60.33
48390;BME280;34643;47.964;7.982;2024-01-07T06:48:40;96160.38;;;16.85;60.51
48390;BME280;34643;47.964;7.982;2024-01-07T06:51:05;96163.97;;;16.84;60.64
48390;BME280;34643;47.964;7.982;2024-01-07T06:53:30;96169.88;;;16.86;60.14
48390;BME280;34643;47.964;7.982;2024-01-07T06:55:56;96160.16;;;16.88;60.64
48390;BME280;34643;47.964;7.982;2024-01-07T06:58:21;96152.44;;;16.87;60.63
48390;BME280;34643;47.964;7.982;2024-01-07T07:00:46;96164.72;;;16.96;60.59
48390;BME280;34643;47.964;7.982;2024-01-07T07:03:11;96168.03;;;16.98;60.65
48390;BME280;34643;47.964;7.982;2024-01-07T07:05:37;96173.22;;;16.98;60.81
48390;BME280;34643;47.964;7.982;2024-01-07T07:08:02;96177.63;;;16.98;60.56
48390;BME280;34643;47.964;7.982;2024-01-07T07:10:27;96176.00;;;16.97;60.66
48390;BME280;34643;47.964;7.982;2024-01-07T07:12:53;96175.16;;;16.96;60.86
48390;BME280;34643;47.964;7.982;2024-01-07T07:15:18;96171.84;;;16.94;60.61
48390;BME280;34643;47.964;7.982;2024-01-07T07:17:43;96183.66;;;16.98;60.66
48390;BME280;34643;47.964;7.982;2024-01-07T07:20:09;96195.63;;;17.01;60.83
48390;BME280;34643;47.964;7.982;2024-01-07T07:22:34;96178.31;;;17.00;60.70
48390;BME280;34643;47.964;7.982;2024-01-07T07:24:59;96185.56;;;16.96;60.94
48390;BME280;34643;47.964;7.982;2024-01-07T07:27:25;96196.28;;;16.93;60.69
48390;BME280;34643;47.964;7.982;2024-01-07T07:29:50;96198.16;;;16.91;60.81
48390;BME280;34643;47.964;7.982;2024-01-07T07:32:15;96199.00;;;16.91;60.91
48390;BME280;34643;47.964;7.982;2024-01-07T07:34:40;96198.31;;;16.89;60.90
48390;BME280;34643;47.964;7.982;2024-01-07T07:37:06;96195.34;;;16.50;57.73
48390;BME280;34643;47.964;7.982;2024-01-07T07:39:31;96205.53;;;14.70;53.54
48390;BME280;34643;47.964;7.982;2024-01-07T07:41:56;96218.13;;;13.63;52.72
48390;BME280;34643;47.964;7.982;2024-01-07T07:44:23;96219.94;;;13.23;53.03
48390;BME280;34643;47.964;7.982;2024-01-07T07:46:48;96218.78;;;13.27;52.36
48390;BME280;34643;47.964;7.982;2024-01-07T07:49:13;96220.19;;;12.92;51.61
48390;BME280;34643;47.964;7.982;2024-01-07T07:51:40;96222.75;;;12.80;52.16
48390;BME280;34643;47.964;7.982;2024-01-07T07:54:06;96226.78;;;12.44;51.65
48390;BME280;34643;47.964;7.982;2024-01-07T07:56:31;96224.66;;;13.56;52.00
48390;BME280;34643;47.964;7.982;2024-01-07T07:58:56;96222.66;;;14.72;52.27
48390;BME280;34643;47.964;7.982;2024-01-07T08:01:22;96227.34;;;15.27;52.57
48390;BME280;34643;47.964;7.982;2024-01-07T08:03:47;96229.44;;;15.57;53.04
48390;BME280;34643;47.964;7.982;2024-01-07T08:06:12;96229.72;;;15.76;52.91
48390;BME280;34643;47.964;7.982;2024-01-07T08:08:38;96225.47;;;15.87;52.88
48390;BME280;34643;47.964;7.982;2024-01-07T08:11:03;96228.06;;;15.87;53.28
48390;BME280;34643;47.964;7.982;2024-01-07T08:13:32;96230.31;;;15.91;53.24
48390;BME280;34643;47.964;7.982;2024-01-07T08:15:57;96232.56;;;15.96;53.41
48390;BME280;34643;47.964;7.982;2024-01-07T08:18:23;96241.06;;;15.98;53.50
48390;BME280;34643;47.964;7.982;2024-01-07T08:20:48;96237.53;;;15.99;53.76
48390;BME280;34643;47.964;7.982;2024-01-07T08:23:13;96235.63;;;16.01;53.95
48390;BME280;34643;47.964;7.982;2024-01-07T08:25:38;96238.13;;;16.03;54.02
48390;BME280;34643;47.964;7.982;2024-01-07T08:28:04;96237.16;;;16.04;54.17
48390;BME280;34643;47.964;7.982;2024-01-07T08:30:29;96241.56;;;16.03;54.45
48390;BME280;34643;47.964;7.982;2024-01-07T08:32:54;96239.88;;;16.02;54.44
48390;BME280;34643;47.964;7.982;2024-01-07T08:35:19;96247.69;;;16.02;54.67
48390;BME280;34643;47.964;7.982;2024-01-07T08:37:45;96240.63;;;16.04;54.62
48390;BME280;34643;47.964;7.982;2024-01-07T08:40:11;96238.94;;;16.03;54.90
48390;BME280;34643;47.964;7.982;2024-01-07T08:42:38;96247.47;;;16.05;54.69
48390;BME280;34643;47.964;7.982;2024-01-07T08:45:03;96244.75;;;16.07;55.11
48390;BME280;34643;47.964;7.982;2024-01-07T08:47:29;96242.84;;;16.09;54.89
48390;BME280;34643;47.964;7.982;2024-01-07T08:49:56;96246.53;;;16.06;55.07
48390;BME280;34643;47.964;7.982;2024-01-07T08:52:21;96250.78;;;16.07;55.33
48390;BME280;34643;47.964;7.982;2024-01-07T08:54:47;96245.56;;;16.07;55.29
48390;BME280;34643;47.964;7.982;2024-01-07T08:57:12;96248.06;;;16.09;55.27
48390;BME280;34643;47.964;7.982;2024-01-07T08:59:38;96255.97;;;16.07;55.29
48390;BME280;34643;47.964;7.982;2024-01-07T09:02:03;96258.69;;;16.06;55.51
48390;BME280;34643;47.964;7.982;2024-01-07T09:04:28;96260.13;;;16.10;55.52
48390;BME280;34643;47.964;7.982;2024-01-07T09:06:53;96261.19;;;16.07;55.56
48390;BME280;34643;47.964;7.982;2024-01-07T09:09:19;96261.31;;;16.06;55.68
48390;BME280;34643;47.964;7.982;2024-01-07T09:11:44;96262.25;;;16.05;55.72
48390;BME280;34643;47.964;7.982;2024-01-07T09:14:10;96269.84;;;16.08;55.77
48390;BME280;34643;47.964;7.982;2024-01-07T09:16:36;96281.91;;;16.09;55.58
48390;BME280;34643;47.964;7.982;2024-01-07T09:19:01;96276.81;;;16.07;55.64
48390;BME280;34643;47.964;7.982;2024-01-07T09:21:26;96284.63;;;16.07;55.75
48390;BME280;34643;47.964;7.982;2024-01-07T09:23:52;96276.81;;;16.07;55.70
48390;BME280;34643;47.964;7.982;2024-01-07T09:26:17;96280.38;;;16.06;55.87
48390;BME280;34643;47.964;7.982;2024-01-07T09:28:42;96283.09;;;16.05;55.91
48390;BME280;34643;47.964;7.982;2024-01-07T09:31:08;96281.41;;;16.04;55.96
48390;BME280;34643;47.964;7.982;2024-01-07T09:33:33;96288.28;;;16.05;55.72
48390;BME280;34643;47.964;7.982;2024-01-07T09:35:58;96292.69;;;16.04;55.97
48390;BME280;34643;47.964;7.982;2024-01-07T09:38:24;96298.81;;;16.03;56.32
48390;BME280;34643;47.964;7.982;2024-01-07T09:40:50;96296.94;;;16.05;56.18
48390;BME280;34643;47.964;7.982;2024-01-07T09:43:16;96301.31;;;16.05;56.12
48390;BME280;34643;47.964;7.982;2024-01-07T09:45:41;96298.59;;;16.06;56.19
48390;BME280;34643;47.964;7.982;2024-01-07T09:48:11;96289.34;;;16.02;56.20
48390;BME280;34643;47.964;7.982;2024-01-07T09:50:36;96289.34;;;16.02;56.37
48390;BME280;34643;47.964;7.982;2024-01-07T09:53:01;96296.09;;;16.05;56.03
48390;BME280;34643;47.964;7.982;2024-01-07T09:55:35;96295.13;;;16.06;56.22
48390;BME280;34643;47.964;7.982;2024-01-07T09:58:02;96291.59;;;16.07;56.19
48390;BME280;34643;47.964;7.982;2024-01-07T10:00:28;96301.53;;;16.13;56.03
48390;BME280;34643;47.964;7.982;2024-01-07T10:02:54;96298.00;;;16.14;55.99
48390;BME280;34643;47.964;7.982;2024-01-07T10:05:19;96298.22;;;16.11;56.27
48390;BME280;34643;47.964;7.982;2024-01-07T10:07:45;96291.97;;;16.13;56.39
48390;BME280;34643;47.964;7.982;2024-01-07T10:10:17;96294.19;;;16.18;56.28
48390;BME280;34643;47.964;7.982;2024-01-07T10:12:45;96300.38;;;16.17;56.36
48390;BME280;34643;47.964;7.982;2024-01-07T10:15:11;96299.19;;;16.21;56.24
48390;BME280;34643;47.964;7.982;2024-01-07T10:17:37;96289.47;;;16.23;56.50
48390;BME280;34643;47.964;7.982;2024-01-07T10:20:04;96297.16;;;16.25;56.41
48390;BME280;34643;47.964;7.982;2024-01-07T10:22:29;96298.84;;;16.26;56.45
48390;BME280;34643;47.964;7.982;2024-01-07T10:24:55;96291.63;;;16.29;56.36
48390;BME280;34643;47.964;7.982;2024-01-07T10:27:22;96291.63;;;16.29;56.45
48390;BME280;34643;47.964;7.982;2024-01-07T10:29:47;96295.03;;;16.30;56.63
48390;BME280;34643;47.964;7.982;2024-01-07T10:32:17;96294.91;;;16.31;56.64
48390;BME280;34643;47.964;7.982;2024-01-07T10:34:44;96297.41;;;16.33;56.53
48390;BME280;34643;47.964;7.982;2024-01-07T10:37:11;96293.13;;;16.32;56.48
48390;BME280;34643;47.964;7.982;2024-01-07T10:39:38;96292.09;;;16.34;56.76
48390;BME280;34643;47.964;7.982;2024-01-07T10:42:03;96297.16;;;16.36;56.71
48390;BME280;34643;47.964;7.982;2024-01-07T10:44:29;96294.69;;;16.34;56.61
48390;BME280;34643;47.964;7.982;2024-01-07T10:46:55;96288.63;;;16.34;56.67
48390;BME280;34643;47.964;7.982;2024-01-07T10:49:21;96288.41;;;16.37;56.76
48390;BME280;34643;47.964;7.982;2024-01-07T10:51:59;96287.81;;;16.33;56.94
48390;BME280;34643;47.964;7.982;2024-01-07T10:54:28;96290.06;;;16.38;56.80
48390;BME280;34643;47.964;7.982;2024-01-07T10:56:53;96284.13;;;16.36;56.73
48390;BME280;34643;47.964;7.982;2024-01-07T10:59:21;96282.25;;;16.38;56.73
48390;BME280;34643;47.964;7.982;2024-01-07T11:01:48;96284.97;;;16.37;56.68
48390;BME280;34643;47.964;7.982;2024-01-07T11:04:15;96288.41;;;16.37;56.72
48390;BME280;34643;47.964;7.982;2024-01-07T11:09:17;96288.16;;;16.40;56.94
48390;BME280;34643;47.964;7.982;2024-01-07T11:11:44;96290.78;;;16.40;56.84
48390;BME280;34643;47.964;7.982;2024-01-07T11:14:54;96282.09;;;16.40;57.16
48390;BME280;34643;47.964;7.982;2024-01-07T11:16:54;96278.69;;;16.39;56.98
48390;BME280;34643;47.964;7.982;2024-01-07T11:19:20;96278.56;;;16.41;57.05
48390;BME280;34643;47.964;7.982;2024-01-07T11:21:45;96280.34;;;16.40;57.08
48390;BME280;34643;47.964;7.982;2024-01-07T11:24:31;96277.75;;;16.40;57.15
48390;BME280;34643;47.964;7.982;2024-01-07T11:27:01;96275.25;;;16.39;57.21
48390;BME280;34643;47.964;7.982;2024-01-07T11:29:26;96264.84;;;16.39;57.03
48390;BME280;34643;47.964;7.982;2024-01-07T11:31:51;96276.09;;;16.39;57.24
48390;BME280;34643;47.964;7.982;2024-01-07T11:37:01;96271.97;;;16.37;57.29
48390;BME280;34643;47.964;7.982;2024-01-07T11:39:26;96271.69;;;16.40;57.16
48390;BME280;34643;47.964;7.982;2024-01-07T11:41:52;96275.03;;;16.42;57.09
48390;BME280;34643;47.964;7.982;2024-01-07T11:44:17;96274.06;;;16.43;57.06
48390;BME280;34643;47.964;7.982;2024-01-07T11:46:42;96272.31;;;16.43;57.25
48390;BME280;34643;47.964;7.982;2024-01-07T11:49:08;96267.09;;;16.43;57.15
48390;BME280;34643;47.964;7.982;2024-01-07T11:51:33;96268.03;;;16.42;57.18
48390;BME280;34643;47.964;7.982;2024-01-07T11:54:00;96271.34;;;16.44;57.29
48390;BME280;34643;47.964;7.982;2024-01-07T11:56:26;96270.53;;;16.44;57.17
48390;BME280;34643;47.964;7.982;2024-01-07T11:58:52;96274.78;;;16.45;57.08
48390;BME280;34643;47.964;7.982;2024-01-07T12:01:20;96272.03;;;16.46;57.31
48390;BME280;34643;47.964;7.982;2024-01-07T12:03:46;96273.94;;;16.44;57.25
48390;BME280;34643;47.964;7.982;2024-01-07T12:06:11;96268.75;;;16.44;57.32
48390;BME280;34643;47.964;7.982;2024-01-07T12:08:39;96264.22;;;16.46;57.14
48390;BME280;34643;47.964;7.982;2024-01-07T12:11:05;96275.63;;;16.45;57.36
48390;BME280;34643;47.964;7.982;2024-01-07T12:13:30;96273.94;;;16.44;57.32
48390;BME280;34643;47.964;7.982;2024-01-07T12:15:56;96273.25;;;16.42;57.44
48390;BME280;34643;47.964;7.982;2024-01-07T12:18:22;96277.53;;;16.43;57.26
48390;BME280;34643;47.964;7.982;2024-01-07T12:20:59;96271.47;;;16.43;57.45
48390;BME280;34643;47.964;7.982;2024-01-07T12:23:25;96281.06;;;16.42;57.21
48390;BME280;34643;47.964;7.982;2024-01-07T12:25:51;96276.56;;;16.44;57.36
48390;BME280;34643;47.964;7.982;2024-01-07T12:28:17;96280.13;;;16.43;57.42
48390;BME280;34643;47.964;7.982;2024-01-07T12:30:43;96284.59;;;16.41;57.26
48390;BME280;34643;47.964;7.982;2024-01-07T12:33:09;96281.06;;;16.42;57.14
48390;BME280;34643;47.964;7.982;2024-01-07T12:35:35;96278.56;;;16.41;57.45
48390;BME280;34643;47.964;7.982;2024-01-07T12:38:00;96278.47;;;16.42;57.38
48390;BME280;34643;47.964;7.982;2024-01-07T12:40:25;96283.66;;;16.42;57.18
48390;BME280;34643;47.964;7.982;2024-01-07T12:42:52;96284.72;;;16.40;57.38
48390;BME280;34643;47.964;7.982;2024-01-07T12:45:17;96273.59;;;16.38;57.30
48390;BME280;34643;47.964;7.982;2024-01-07T12:47:43;96277.75;;;16.40;57.24
48390;BME280;34643;47.964;7.982;2024-01-07T12:50:08;96280.34;;;16.40;57.23
48390;BME280;34643;47.964;7.982;2024-01-07T12:52:38;96280.59;;;16.37;57.40
48390;BME280;34643;47.964;7.982;2024-01-07T12:55:04;96291.94;;;16.36;57.38
48390;BME280;34643;47.964;7.982;2024-01-07T12:57:30;96283.31;;;16.35;57.42